createdAt,value
2024-03-12T00:00:52.195Z,27.60
2024-03-12T00:01:52.361Z,27.59
2024-03-12T00:02:52.232Z,27.59
2024-03-12T00:03:52.621Z,27.60
2024-03-12T00:04:52.344Z,27.62
2024-03-12T00:05:52.416Z,27.60
2024-03-12T00:06:52.510Z,27.62
2024-03-12T00:07:52.524Z,27.62
2024-03-12T00:08:52.605Z,27.59
2024-03-12T00:09:52.676Z,27.60
2024-03-12T00:10:52.722Z,27.60
2024-03-12T00:11:52.716Z,27.62
2024-03-12T00:12:52.898Z,27.62
2024-03-12T00:13:52.844Z,27.63
2024-03-12T00:14:52.921Z,27.62
2024-03-12T00:15:53.065Z,27.59
2024-03-12T00:16:53.008Z,27.59
2024-03-12T00:17:53.098Z,27.60
2024-03-12T00:18:53.213Z,27.59
2024-03-12T00:19:53.177Z,27.60
2024-03-12T00:20:53.212Z,27.57
2024-03-12T00:21:53.361Z,27.57
2024-03-12T00:22:53.365Z,27.57
2024-03-12T00:23:53.614Z,27.59
2024-03-12T00:24:53.514Z,27.60
2024-03-12T00:25:53.515Z,27.57
2024-03-12T00:26:53.604Z,27.59
2024-03-12T00:27:53.639Z,27.59
2024-03-12T00:28:53.659Z,27.60
2024-03-12T00:29:53.724Z,27.60
2024-03-12T00:30:53.827Z,27.59
2024-03-12T00:31:53.826Z,27.59
2024-03-12T00:32:53.881Z,27.60
2024-03-12T00:33:53.995Z,27.60
2024-03-12T00:34:54.009Z,27.59
2024-03-12T00:35:54.086Z,27.62
2024-03-12T00:36:54.192Z,27.57
2024-03-12T00:37:54.184Z,27.60
2024-03-12T00:38:54.594Z,27.57
2024-03-12T00:39:54.285Z,27.62
2024-03-12T00:40:54.363Z,27.59
2024-03-12T00:41:54.375Z,27.60
2024-03-12T00:42:54.481Z,27.57
2024-03-12T00:43:54.518Z,27.60
2024-03-12T00:44:54.563Z,27.59
2024-03-12T00:45:54.811Z,27.60
2024-03-12T00:46:54.683Z,27.59
2024-03-12T00:47:54.852Z,27.57
2024-03-12T00:48:55.151Z,27.59
2024-03-12T00:49:57.848Z,27.59
2024-03-12T00:50:54.885Z,27.59
2024-03-12T00:51:54.902Z,27.60
2024-03-12T00:52:54.837Z,27.59
2024-03-12T00:53:54.860Z,27.60
2024-03-12T00:54:54.898Z,27.60
2024-03-12T00:55:54.867Z,27.60
2024-03-12T00:56:54.840Z,27.57
2024-03-12T00:57:54.871Z,27.60
2024-03-12T00:58:54.864Z,27.60
2024-03-12T00:59:54.852Z,27.59
2024-03-12T01:00:55.270Z,27.59
2024-03-12T01:01:54.880Z,27.59
2024-03-12T01:02:54.862Z,27.60
2024-03-12T01:03:54.932Z,27.60
2024-03-12T01:04:54.891Z,27.59
2024-03-12T01:05:54.869Z,27.60
2024-03-12T01:06:54.891Z,27.59
2024-03-12T01:07:54.862Z,27.59
2024-03-12T01:08:54.852Z,27.62
2024-03-12T01:09:55.057Z,27.59
2024-03-12T01:10:54.996Z,27.59
2024-03-12T01:11:55.029Z,27.60
2024-03-12T01:12:55.157Z,27.59
2024-03-12T01:13:55.150Z,27.59
2024-03-12T01:14:55.219Z,27.59
2024-03-12T01:15:55.505Z,27.57
2024-03-12T01:16:55.385Z,27.59
2024-03-12T01:17:55.545Z,27.59
2024-03-12T01:18:55.525Z,27.57
2024-03-12T01:19:55.509Z,27.57
2024-03-12T01:20:55.609Z,27.56
2024-03-12T01:21:55.724Z,27.57
2024-03-12T01:22:56.126Z,27.57
2024-03-12T01:23:55.829Z,27.60
2024-03-12T01:24:55.843Z,27.57
2024-03-12T01:25:55.906Z,27.56
2024-03-12T01:26:55.936Z,27.59
2024-03-12T01:27:56.055Z,27.59
2024-03-12T01:28:56.057Z,27.56
2024-03-12T01:29:56.117Z,27.59
2024-03-12T01:30:56.275Z,27.59
2024-03-12T01:31:56.246Z,27.57
2024-03-12T01:32:56.657Z,27.57
2024-03-12T01:33:56.393Z,27.56
2024-03-12T01:34:56.425Z,27.57
2024-03-12T01:35:56.515Z,27.56
2024-03-12T01:36:56.674Z,27.57
2024-03-12T01:37:56.621Z,27.59
2024-03-12T01:38:56.702Z,27.59
2024-03-12T01:39:56.785Z,27.57
2024-03-12T01:40:56.819Z,27.57
2024-03-12T01:41:56.860Z,27.57
2024-03-12T01:42:56.964Z,27.57
2024-03-12T01:43:57.004Z,27.56
2024-03-12T01:44:57.030Z,27.57
2024-03-12T01:45:57.163Z,27.57
2024-03-12T01:46:57.170Z,27.57
2024-03-12T01:47:57.246Z,27.56
2024-03-12T01:48:57.315Z,27.56
2024-03-12T01:49:57.351Z,27.59
2024-03-12T01:50:57.429Z,27.60
2024-03-12T01:51:57.490Z,27.59
2024-03-12T01:52:57.536Z,27.56
2024-03-12T01:53:57.664Z,27.57
2024-03-12T01:54:57.714Z,27.56
2024-03-12T01:55:57.731Z,27.59
2024-03-12T01:56:57.788Z,27.59
2024-03-12T01:57:57.899Z,27.57
2024-03-12T01:58:58.143Z,27.59
2024-03-12T01:59:57.987Z,27.59
2024-03-12T02:00:58.084Z,27.59
2024-03-12T02:01:58.172Z,27.57
2024-03-12T02:02:58.169Z,27.59
2024-03-12T02:03:58.677Z,27.59
2024-03-12T02:04:58.277Z,27.57
2024-03-12T02:05:58.332Z,27.57
2024-03-12T02:06:58.501Z,27.57
2024-03-12T02:07:58.445Z,27.57
2024-03-12T02:08:58.648Z,27.57
2024-03-12T02:09:58.721Z,27.56
2024-03-12T02:10:58.743Z,27.57
2024-03-12T02:11:58.743Z,27.57
2024-03-12T02:12:58.879Z,27.57
2024-03-12T02:13:58.822Z,27.57
2024-03-12T02:14:58.925Z,27.56
2024-03-12T02:15:59.037Z,27.56
2024-03-12T02:16:59.008Z,27.56
2024-03-12T02:17:59.145Z,27.57
2024-03-12T02:18:59.729Z,27.57
2024-03-12T02:19:59.232Z,27.57
2024-03-12T02:20:59.296Z,27.57
2024-03-12T02:21:59.427Z,27.55
2024-03-12T02:22:59.404Z,27.56
2024-03-12T02:23:59.649Z,27.56
2024-03-12T02:24:59.689Z,27.56
2024-03-12T02:25:59.595Z,27.57
2024-03-12T02:26:59.677Z,27.56
2024-03-12T02:27:59.824Z,27.57
2024-03-12T02:29:00.170Z,27.57
2024-03-12T02:29:59.911Z,27.57
2024-03-12T02:31:00.071Z,27.57
2024-03-12T02:32:00.018Z,27.59
2024-03-12T02:33:00.085Z,27.57
2024-03-12T02:34:00.228Z,27.57
2024-03-12T02:35:00.233Z,27.57
2024-03-12T02:36:00.239Z,27.56
2024-03-12T02:37:00.423Z,27.57
2024-03-12T02:38:00.419Z,27.56
2024-03-12T02:39:00.474Z,27.56
2024-03-12T02:40:00.626Z,27.55
2024-03-12T02:41:00.588Z,27.57
2024-03-12T02:42:00.652Z,27.57
2024-03-12T02:43:00.764Z,27.57
2024-03-12T02:44:01.669Z,27.56
2024-03-12T02:45:00.845Z,27.56
2024-03-12T02:46:01.015Z,27.55
2024-03-12T02:47:01.001Z,27.56
2024-03-12T02:48:01.126Z,27.56
2024-03-12T02:49:01.230Z,27.56
2024-03-12T02:50:01.174Z,27.56
2024-03-12T02:51:01.231Z,27.57
2024-03-12T02:52:01.441Z,27.56
2024-03-12T02:53:01.368Z,27.56
2024-03-12T02:54:01.651Z,27.55
2024-03-12T02:55:01.580Z,27.56
2024-03-12T02:56:01.585Z,27.56
2024-03-12T02:57:01.654Z,27.55
2024-03-12T02:58:01.727Z,27.57
2024-03-12T02:59:02.164Z,27.55
2024-03-12T03:00:01.864Z,27.56
2024-03-12T03:01:02.059Z,27.55
2024-03-12T03:02:02.036Z,27.56
2024-03-12T03:03:02.031Z,27.57
2024-03-12T03:04:02.278Z,27.59
2024-03-12T03:05:02.153Z,27.55
2024-03-12T03:06:02.207Z,27.56
2024-03-12T03:07:02.472Z,27.56
2024-03-12T03:08:02.354Z,27.55
2024-03-12T03:09:02.431Z,27.56
2024-03-12T03:10:02.767Z,27.57
2024-03-12T03:11:02.632Z,27.57
2024-03-12T03:12:02.573Z,27.53
2024-03-12T03:13:02.735Z,27.55
2024-03-12T03:14:02.747Z,27.56
2024-03-12T03:15:02.813Z,27.56
2024-03-12T03:16:02.950Z,27.56
2024-03-12T03:17:02.911Z,27.56
2024-03-12T03:18:03.121Z,27.56
2024-03-12T03:19:03.162Z,27.56
2024-03-12T03:20:03.128Z,27.56
2024-03-12T03:21:03.145Z,27.55
2024-03-12T03:22:03.295Z,27.57
2024-03-12T03:23:03.331Z,27.57
2024-03-12T03:24:03.674Z,27.56
2024-03-12T03:25:03.565Z,27.57
2024-03-12T03:26:03.534Z,27.57
2024-03-12T03:27:03.582Z,27.57
2024-03-12T03:28:03.718Z,27.57
2024-03-12T03:29:04.182Z,27.57
2024-03-12T03:30:03.768Z,27.55
2024-03-12T03:31:03.879Z,27.56
2024-03-12T03:32:03.952Z,27.56
2024-03-12T03:33:04.064Z,27.57
2024-03-12T03:34:04.267Z,27.55
2024-03-12T03:35:04.071Z,27.57
2024-03-12T03:36:04.105Z,27.57
2024-03-12T03:37:04.383Z,27.57
2024-03-12T03:38:04.278Z,27.59
2024-03-12T03:39:04.681Z,27.57
2024-03-12T03:40:04.441Z,27.59
2024-03-12T03:41:04.461Z,27.57
2024-03-12T03:42:04.495Z,27.57
2024-03-12T03:43:04.673Z,27.57
2024-03-12T03:44:04.677Z,27.56
2024-03-12T03:45:04.715Z,27.57
2024-03-12T03:46:04.880Z,27.59
2024-03-12T03:47:04.861Z,27.57
2024-03-12T03:48:04.870Z,27.57
2024-03-12T03:49:05.233Z,27.56
2024-03-12T03:50:04.967Z,27.59
2024-03-12T03:51:05.048Z,27.59
2024-03-12T03:52:05.118Z,27.57
2024-03-12T03:53:05.162Z,27.56
2024-03-12T03:54:05.655Z,27.59
2024-03-12T03:55:05.419Z,27.55
2024-03-12T03:56:05.353Z,27.57
2024-03-12T03:57:05.388Z,27.57
2024-03-12T03:58:05.568Z,27.56
2024-03-12T03:59:05.700Z,27.57
2024-03-12T04:00:05.577Z,27.57
2024-03-12T04:01:05.728Z,27.55
2024-03-12T04:02:05.738Z,27.56
2024-03-12T04:03:05.779Z,27.56
2024-03-12T04:04:06.240Z,27.59
2024-03-12T04:05:05.864Z,27.56
2024-03-12T04:06:05.977Z,27.57
2024-03-12T04:07:06.071Z,27.59
2024-03-12T04:08:06.056Z,27.56
2024-03-12T04:09:06.234Z,27.56
2024-03-12T04:10:06.254Z,27.56
2024-03-12T04:11:06.267Z,27.56
2024-03-12T04:12:06.324Z,27.56
2024-03-12T04:13:06.431Z,27.59
2024-03-12T04:14:06.688Z,27.59
2024-03-12T04:15:06.478Z,27.56
2024-03-12T04:16:06.595Z,27.57
2024-03-12T04:17:06.653Z,27.57
2024-03-12T04:18:06.742Z,27.56
2024-03-12T04:19:07.245Z,27.59
2024-03-12T04:20:06.815Z,27.57
2024-03-12T04:21:06.882Z,27.57
2024-03-12T04:22:07.129Z,27.56
2024-03-12T04:23:06.978Z,27.57
2024-03-12T04:24:07.204Z,27.56
2024-03-12T04:25:07.178Z,27.59
2024-03-12T04:26:07.179Z,27.57
2024-03-12T04:27:07.199Z,27.56
2024-03-12T04:28:07.346Z,27.57
2024-03-12T04:29:07.701Z,27.56
2024-03-12T04:30:07.414Z,27.57
2024-03-12T04:31:07.531Z,27.57
2024-03-12T04:32:07.523Z,27.56
2024-03-12T04:33:07.628Z,27.55
2024-03-12T04:34:07.726Z,27.56
2024-03-12T04:35:07.731Z,27.56
2024-03-12T04:36:07.784Z,27.56
2024-03-12T04:37:07.954Z,27.56
2024-03-12T04:38:07.880Z,27.56
2024-03-12T04:39:08.203Z,27.57
2024-03-12T04:40:15.629Z,27.55
2024-03-12T04:41:15.418Z,27.53
2024-03-12T04:42:15.426Z,27.56
2024-03-12T04:43:15.488Z,27.56
2024-03-12T04:44:15.595Z,27.55
2024-03-12T04:45:15.573Z,27.53
2024-03-12T04:46:15.488Z,27.55
2024-03-12T04:47:15.456Z,27.55
2024-03-12T04:48:15.472Z,27.57
2024-03-12T04:49:15.621Z,27.56
2024-03-12T04:50:15.846Z,27.55
2024-03-12T04:51:15.686Z,27.55
2024-03-12T04:52:15.437Z,27.57
2024-03-12T04:53:15.460Z,27.56
2024-03-12T04:54:15.590Z,27.55
2024-03-12T04:55:15.636Z,27.57
2024-03-12T04:56:15.491Z,27.57
2024-03-12T04:57:15.480Z,27.59
2024-03-12T04:58:15.465Z,27.60
2024-03-12T04:59:15.595Z,27.57
2024-03-12T05:00:16.469Z,27.56
2024-03-12T05:01:15.593Z,27.56
2024-03-12T05:02:15.473Z,27.56
2024-03-12T05:03:15.528Z,27.57
2024-03-12T05:04:22.066Z,27.57
2024-03-12T05:05:16.595Z,27.57
2024-03-12T05:06:16.675Z,27.57
2024-03-12T05:07:15.754Z,27.53
2024-03-12T05:08:15.760Z,27.56
2024-03-12T05:09:15.771Z,27.56
2024-03-12T05:10:15.941Z,27.57
2024-03-12T05:11:15.963Z,27.62
2024-03-12T05:12:15.966Z,27.57
2024-03-12T05:13:16.082Z,27.59
2024-03-12T05:14:16.087Z,27.56
2024-03-12T05:15:16.155Z,27.57
2024-03-12T05:16:16.244Z,27.56
2024-03-12T05:17:16.296Z,27.57
2024-03-12T05:18:16.381Z,27.57
2024-03-12T05:19:16.483Z,27.56
2024-03-12T05:20:16.489Z,27.57
2024-03-12T05:21:16.517Z,27.57
2024-03-12T05:22:16.635Z,27.57
2024-03-12T05:23:16.673Z,27.59
2024-03-12T05:24:16.755Z,27.59
2024-03-12T05:25:16.789Z,27.59
2024-03-12T05:26:16.865Z,27.59
2024-03-12T05:27:16.900Z,27.56
2024-03-12T05:28:16.978Z,27.57
2024-03-12T05:29:17.038Z,27.55
2024-03-12T05:30:17.150Z,27.56
2024-03-12T05:31:17.197Z,27.56
2024-03-12T05:32:17.214Z,27.59
2024-03-12T05:33:17.428Z,27.57
2024-03-12T05:34:17.474Z,27.57
2024-03-12T05:35:17.398Z,27.59
2024-03-12T05:36:17.458Z,27.59
2024-03-12T05:37:17.676Z,27.57
2024-03-12T05:38:17.578Z,27.56
2024-03-12T05:39:17.676Z,27.56
2024-03-12T05:40:17.758Z,27.57
2024-03-12T05:41:17.806Z,27.57
2024-03-12T05:42:17.867Z,27.56
2024-03-12T05:43:17.976Z,27.56
2024-03-12T05:44:17.978Z,27.56
2024-03-12T05:45:18.033Z,27.57
2024-03-12T05:46:18.163Z,27.53
2024-03-12T05:47:18.154Z,27.56
2024-03-12T05:48:18.208Z,27.55
2024-03-12T05:49:18.657Z,27.55
2024-03-12T05:50:18.567Z,27.57
2024-03-12T05:51:18.380Z,27.59
2024-03-12T05:52:18.448Z,27.56
2024-03-12T05:53:18.516Z,27.57
2024-03-12T05:54:18.594Z,27.56
2024-03-12T05:55:18.702Z,27.56
2024-03-12T05:56:19.406Z,27.56
2024-03-12T05:57:18.775Z,27.55
2024-03-12T05:58:18.832Z,27.57
2024-03-12T05:59:19.096Z,27.56
2024-03-12T06:00:18.932Z,27.55
2024-03-12T06:01:19.107Z,27.56
2024-03-12T06:02:19.035Z,27.53
2024-03-12T06:03:19.120Z,27.56
2024-03-12T06:04:19.270Z,27.56
2024-03-12T06:05:19.241Z,27.57
2024-03-12T06:06:19.405Z,27.55
2024-03-12T06:07:21.197Z,27.56
2024-03-12T06:08:19.400Z,27.56
2024-03-12T06:09:19.460Z,27.55
2024-03-12T06:10:20.574Z,27.56
2024-03-12T06:11:19.621Z,27.55
2024-03-12T06:12:19.681Z,27.55
2024-03-12T06:13:19.752Z,27.53
2024-03-12T06:14:19.771Z,27.57
2024-03-12T06:15:19.883Z,27.55
2024-03-12T06:16:20.106Z,27.56
2024-03-12T06:17:19.977Z,27.56
2024-03-12T06:18:20.065Z,27.56
2024-03-12T06:19:20.857Z,27.55
2024-03-12T06:20:20.195Z,27.56
2024-03-12T06:21:20.259Z,27.57
2024-03-12T06:22:20.370Z,27.55
2024-03-12T06:23:20.391Z,27.55
2024-03-12T06:24:20.608Z,27.56
2024-03-12T06:25:20.571Z,27.55
2024-03-12T06:26:20.586Z,27.53
2024-03-12T06:27:20.628Z,27.57
2024-03-12T06:28:20.665Z,27.56
2024-03-12T06:29:21.108Z,27.56
2024-03-12T06:30:20.823Z,27.56
2024-03-12T06:31:21.038Z,27.57
2024-03-12T06:32:20.952Z,27.53
2024-03-12T06:33:21.093Z,27.56
2024-03-12T06:34:21.174Z,27.56
2024-03-12T06:35:21.108Z,27.55
2024-03-12T06:36:21.234Z,27.56
2024-03-12T06:37:21.275Z,27.56
2024-03-12T06:38:21.382Z,27.55
2024-03-12T06:39:21.651Z,27.57
2024-03-12T06:40:21.555Z,27.56
2024-03-12T06:41:21.492Z,27.55
2024-03-12T06:42:21.575Z,27.56
2024-03-12T06:43:21.720Z,27.56
2024-03-12T06:44:22.122Z,27.57
2024-03-12T06:45:21.766Z,27.56
2024-03-12T06:46:21.923Z,27.59
2024-03-12T06:47:21.892Z,27.56
2024-03-12T06:48:21.958Z,27.55
2024-03-12T06:49:22.082Z,27.59
2024-03-12T06:50:22.054Z,27.62
2024-03-12T06:51:22.163Z,27.62
2024-03-12T06:52:22.200Z,27.66
2024-03-12T06:53:22.292Z,27.67
2024-03-12T06:54:22.603Z,27.66
2024-03-12T06:55:22.461Z,27.69
2024-03-12T06:56:22.475Z,27.72
2024-03-12T06:57:22.514Z,27.73
2024-03-12T06:58:22.671Z,27.76
2024-03-12T06:59:23.114Z,27.77
2024-03-12T07:00:22.669Z,27.81
2024-03-12T07:01:22.786Z,27.81
2024-03-12T07:02:22.747Z,27.83
2024-03-12T07:03:23.021Z,27.87
2024-03-12T07:04:23.228Z,27.90
2024-03-12T07:05:22.872Z,27.97
2024-03-12T07:06:22.962Z,27.97
2024-03-12T07:07:22.943Z,28.03
2024-03-12T07:08:23.040Z,28.01
2024-03-12T07:09:23.112Z,28.03
2024-03-12T07:10:23.080Z,28.03
2024-03-12T07:11:23.104Z,28.07
2024-03-12T07:12:23.095Z,28.08
2024-03-12T07:13:23.102Z,28.11
2024-03-12T07:14:23.606Z,28.11
2024-03-12T07:15:23.148Z,28.11
2024-03-12T07:16:23.252Z,28.14
2024-03-12T07:17:23.360Z,28.12
2024-03-12T07:18:23.265Z,28.17
2024-03-12T07:19:23.648Z,28.17
2024-03-12T07:20:23.295Z,28.18
2024-03-12T07:21:23.317Z,28.18
2024-03-12T07:22:23.376Z,28.19
2024-03-12T07:23:23.337Z,28.19
2024-03-12T07:24:23.641Z,28.22
2024-03-12T07:25:23.430Z,28.24
2024-03-12T07:26:23.425Z,28.24
2024-03-12T07:27:23.430Z,28.28
2024-03-12T07:28:25.032Z,28.29
2024-03-12T07:29:23.637Z,28.31
2024-03-12T07:30:23.472Z,28.32
2024-03-12T07:31:23.508Z,28.31
2024-03-12T07:32:23.477Z,28.34
2024-03-12T07:33:23.476Z,28.35
2024-03-12T07:34:23.623Z,28.36
2024-03-12T07:35:23.520Z,28.35
2024-03-12T07:36:23.511Z,28.39
2024-03-12T07:37:23.541Z,28.41
2024-03-12T07:38:23.519Z,28.42
2024-03-12T07:39:23.605Z,28.42
2024-03-12T07:40:23.602Z,28.42
2024-03-12T07:41:23.563Z,28.43
2024-03-12T07:42:23.608Z,28.45
2024-03-12T07:43:23.676Z,28.48
2024-03-12T07:44:24.129Z,28.48
2024-03-12T07:45:23.686Z,28.48
2024-03-12T07:46:23.867Z,28.51
2024-03-12T07:47:23.755Z,28.49
2024-03-12T07:48:23.880Z,28.53
2024-03-12T07:49:24.170Z,28.53
2024-03-12T07:50:23.891Z,28.53
2024-03-12T07:51:23.955Z,28.52
2024-03-12T07:52:24.032Z,28.53
2024-03-12T07:53:24.076Z,28.55
2024-03-12T07:54:25.052Z,28.56
2024-03-12T07:55:24.073Z,28.60
2024-03-12T07:56:24.061Z,28.63
2024-03-12T07:57:24.038Z,28.58
2024-03-12T07:58:24.118Z,28.48
2024-03-12T07:59:24.060Z,28.36
2024-03-12T08:00:24.082Z,28.22
2024-03-12T08:01:24.166Z,28.05
2024-03-12T08:02:24.098Z,27.93
2024-03-12T08:03:24.076Z,27.77
2024-03-12T08:04:24.208Z,27.67
2024-03-12T08:05:24.074Z,27.57
2024-03-12T08:06:24.641Z,27.48
2024-03-12T08:07:24.152Z,27.41
2024-03-12T08:08:24.145Z,27.28
2024-03-12T08:09:24.672Z,27.21
2024-03-12T08:10:24.384Z,27.12
2024-03-12T08:11:24.412Z,27.04
2024-03-12T08:12:24.412Z,26.97
2024-03-12T08:13:24.511Z,26.94
2024-03-12T08:14:24.558Z,26.89
2024-03-12T08:15:24.700Z,26.87
2024-03-12T08:16:24.710Z,26.86
2024-03-12T08:17:24.740Z,26.87
2024-03-12T08:18:24.870Z,26.87
2024-03-12T08:19:25.269Z,26.86
2024-03-12T08:20:24.916Z,26.87
2024-03-12T08:21:24.947Z,26.86
2024-03-12T08:22:25.042Z,26.86
2024-03-12T08:23:25.089Z,26.89
2024-03-12T08:24:25.144Z,26.87
2024-03-12T08:25:25.233Z,26.86
2024-03-12T08:26:25.196Z,26.89
2024-03-12T08:27:25.195Z,26.87
2024-03-12T08:28:25.285Z,26.89
2024-03-12T08:29:25.301Z,26.86
2024-03-12T08:30:25.396Z,26.83
2024-03-12T08:31:32.761Z,26.76
2024-03-12T08:32:26.782Z,26.73
2024-03-12T08:33:25.569Z,26.73
2024-03-12T08:34:25.594Z,26.73
2024-03-12T08:35:25.513Z,26.74
2024-03-12T08:36:25.472Z,26.73
2024-03-12T08:37:25.475Z,26.72
2024-03-12T08:38:25.510Z,26.77
2024-03-12T08:39:25.512Z,26.80
2024-03-12T08:40:25.570Z,26.87
2024-03-12T08:41:25.491Z,26.93
2024-03-12T08:42:25.471Z,27.00
2024-03-12T08:43:26.114Z,27.08
2024-03-12T08:44:25.631Z,27.18
2024-03-12T08:45:25.589Z,27.27
2024-03-12T08:46:25.655Z,27.34
2024-03-12T08:47:25.852Z,27.42
2024-03-12T08:48:25.752Z,27.49
2024-03-12T08:49:26.157Z,27.55
2024-03-12T08:50:25.887Z,27.62
2024-03-12T08:51:25.964Z,27.63
2024-03-12T08:52:26.008Z,27.72
2024-03-12T08:53:25.982Z,27.77
2024-03-12T08:54:26.621Z,27.77
2024-03-12T08:55:26.092Z,27.87
2024-03-12T08:56:26.055Z,27.93
2024-03-12T08:57:26.120Z,27.98
2024-03-12T08:58:26.099Z,28.00
2024-03-12T08:59:26.150Z,28.08
2024-03-12T09:00:26.136Z,28.12
2024-03-12T09:01:26.269Z,28.19
2024-03-12T09:02:26.130Z,28.24
2024-03-12T09:03:26.218Z,28.25
2024-03-12T09:04:26.667Z,28.29
2024-03-12T09:05:26.325Z,28.34
2024-03-12T09:06:26.397Z,28.42
2024-03-12T09:07:26.447Z,28.46
2024-03-12T09:08:26.522Z,28.51
2024-03-12T09:09:26.649Z,28.56
2024-03-12T09:10:26.776Z,28.60
2024-03-12T09:11:26.806Z,28.64
2024-03-12T09:12:26.750Z,28.71
2024-03-12T09:13:26.799Z,28.74
2024-03-12T09:14:27.191Z,28.77
2024-03-12T09:15:26.878Z,28.80
2024-03-12T09:16:26.914Z,28.84
2024-03-12T09:17:28.019Z,28.90
2024-03-12T09:18:27.723Z,28.91
2024-03-12T09:19:27.143Z,28.94
2024-03-12T09:20:26.959Z,28.98
2024-03-12T09:21:26.907Z,29.00
2024-03-12T09:22:26.951Z,29.03
2024-03-12T09:23:26.961Z,29.05
2024-03-12T09:24:27.154Z,29.08
2024-03-12T09:25:26.962Z,29.14
2024-03-12T09:26:26.959Z,29.15
2024-03-12T09:27:26.931Z,29.17
2024-03-12T09:28:26.949Z,29.22
2024-03-12T09:29:26.957Z,29.26
2024-03-12T09:30:26.950Z,29.28
2024-03-12T09:31:26.986Z,29.29
2024-03-12T09:32:26.937Z,29.32
2024-03-12T09:33:26.973Z,29.33
2024-03-12T09:34:27.184Z,29.38
2024-03-12T09:35:26.979Z,29.35
2024-03-12T09:36:26.955Z,29.38
2024-03-12T09:37:26.989Z,29.41
2024-03-12T09:38:26.987Z,29.39
2024-03-12T09:39:27.149Z,29.44
2024-03-12T09:40:27.037Z,29.45
2024-03-12T09:41:27.069Z,29.49
2024-03-12T09:42:26.993Z,29.50
2024-03-12T09:43:26.986Z,29.50
2024-03-12T09:44:27.145Z,29.49
2024-03-12T09:45:26.965Z,29.50
2024-03-12T09:46:26.975Z,29.49
2024-03-12T09:47:27.038Z,29.50
2024-03-12T09:48:26.983Z,29.46
2024-03-12T09:49:27.196Z,29.45
2024-03-12T09:50:26.988Z,29.41
2024-03-12T09:51:26.994Z,29.38
2024-03-12T09:52:27.045Z,29.38
2024-03-12T09:53:27.006Z,29.32
2024-03-12T09:54:27.091Z,29.32
2024-03-12T09:55:27.104Z,29.26
2024-03-12T09:56:27.163Z,29.24
2024-03-12T09:57:27.204Z,29.21
2024-03-12T09:58:28.221Z,29.17
2024-03-12T09:59:27.668Z,29.18
2024-03-12T10:00:27.244Z,29.15
2024-03-12T10:01:27.224Z,29.15
2024-03-12T10:02:27.223Z,29.11
2024-03-12T10:03:27.197Z,29.08
2024-03-12T10:04:27.681Z,29.04
2024-03-12T10:05:27.212Z,29.00
2024-03-12T10:06:27.229Z,28.94
2024-03-12T10:07:27.215Z,28.90
2024-03-12T10:08:27.214Z,28.83
2024-03-12T10:09:27.762Z,28.83
2024-03-12T10:10:27.240Z,28.76
2024-03-12T10:11:27.276Z,28.73
2024-03-12T10:12:27.235Z,28.71
2024-03-12T10:13:27.257Z,28.69
2024-03-12T10:14:27.266Z,28.66
2024-03-12T10:15:27.231Z,28.64
2024-03-12T10:16:27.210Z,28.63
2024-03-12T10:17:27.309Z,28.64
2024-03-12T10:18:27.221Z,28.63
2024-03-12T10:19:27.253Z,28.64
2024-03-12T10:20:27.260Z,28.64
2024-03-12T10:21:27.320Z,28.63
2024-03-12T10:22:27.299Z,28.64
2024-03-12T10:23:27.422Z,28.66
2024-03-12T10:24:27.373Z,28.69
2024-03-12T10:25:27.431Z,28.63
2024-03-12T10:26:27.463Z,28.66
2024-03-12T10:27:27.492Z,28.62
2024-03-12T10:28:27.610Z,28.64
2024-03-12T10:29:27.714Z,28.62
2024-03-12T10:30:27.595Z,28.64
2024-03-12T10:31:27.640Z,28.66
2024-03-12T10:32:27.667Z,28.64
2024-03-12T10:33:27.752Z,28.66
2024-03-12T10:34:28.198Z,28.69
2024-03-12T10:35:27.827Z,28.69
2024-03-12T10:36:27.859Z,28.69
2024-03-12T10:37:27.879Z,28.69
2024-03-12T10:38:27.969Z,28.69
2024-03-12T10:39:28.204Z,28.71
2024-03-12T10:40:28.132Z,28.74
2024-03-12T10:41:28.243Z,28.74
2024-03-12T10:42:28.225Z,28.77
2024-03-12T10:43:28.314Z,28.79
2024-03-12T10:44:28.405Z,28.81
2024-03-12T10:45:28.461Z,28.81
2024-03-12T10:46:28.496Z,28.86
2024-03-12T10:47:28.522Z,28.84
2024-03-12T10:48:28.575Z,28.81
2024-03-12T10:49:28.692Z,28.87
2024-03-12T10:50:28.713Z,28.84
2024-03-12T10:51:28.764Z,28.84
2024-03-12T10:52:28.841Z,28.84
2024-03-12T10:53:31.982Z,28.81
2024-03-12T10:54:30.679Z,28.79
2024-03-12T10:55:28.911Z,28.76
2024-03-12T10:56:28.888Z,28.73
2024-03-12T10:57:28.915Z,28.71
2024-03-12T10:58:28.935Z,28.64
2024-03-12T10:59:28.920Z,28.63
2024-03-12T11:00:28.897Z,28.62
2024-03-12T11:01:28.982Z,28.60
2024-03-12T11:02:28.931Z,28.53
2024-03-12T11:03:28.909Z,28.53
2024-03-12T11:04:29.210Z,28.49
2024-03-12T11:05:28.965Z,28.49
2024-03-12T11:06:28.926Z,28.48
2024-03-12T11:07:28.910Z,28.45
2024-03-12T11:08:28.954Z,28.42
2024-03-12T11:09:29.277Z,28.38
2024-03-12T11:10:29.159Z,28.35
2024-03-12T11:11:28.932Z,28.35
2024-03-12T11:12:28.952Z,28.32
2024-03-12T11:13:28.939Z,28.31
2024-03-12T11:14:29.231Z,28.28
2024-03-12T11:15:28.929Z,28.26
2024-03-12T11:16:29.702Z,28.25
2024-03-12T11:17:29.113Z,28.21
2024-03-12T11:18:28.911Z,28.22
2024-03-12T11:19:28.991Z,28.21
2024-03-12T11:20:29.148Z,28.19
2024-03-12T11:21:28.929Z,28.17
2024-03-12T11:22:28.922Z,28.14
2024-03-12T11:23:28.974Z,28.14
2024-03-12T11:24:29.204Z,28.12
2024-03-12T11:25:28.934Z,28.11
2024-03-12T11:27:28.938Z,28.09
2024-03-12T11:28:28.928Z,28.08
2024-03-12T11:29:28.976Z,28.05
2024-03-12T11:30:28.953Z,28.05
2024-03-12T11:31:28.936Z,28.04
2024-03-12T11:32:28.987Z,28.03
2024-03-12T11:33:28.945Z,28.03
2024-03-12T11:34:29.212Z,28.01
2024-03-12T11:35:28.942Z,28.01
2024-03-12T11:36:28.994Z,28.01
2024-03-12T11:37:28.961Z,28.00
2024-03-12T11:38:28.970Z,27.98
2024-03-12T11:39:29.004Z,28.00
2024-03-12T11:40:29.032Z,28.01
2024-03-12T11:41:28.960Z,27.98
2024-03-12T11:42:28.971Z,28.00
2024-03-12T11:43:28.978Z,27.98
2024-03-12T11:44:28.981Z,27.98
2024-03-12T11:45:28.979Z,27.98
2024-03-12T11:46:28.993Z,27.98
2024-03-12T11:47:28.966Z,27.97
2024-03-12T11:48:28.964Z,27.97
2024-03-12T11:49:28.984Z,28.00
2024-03-12T11:50:29.214Z,27.96
2024-03-12T11:51:28.995Z,27.97
2024-03-12T11:52:29.010Z,27.97
2024-03-12T11:53:28.980Z,27.98
2024-03-12T11:54:28.966Z,27.96
2024-03-12T11:55:29.199Z,27.97
2024-03-12T11:56:28.986Z,28.00
2024-03-12T11:57:28.986Z,27.96
2024-03-12T11:58:29.007Z,27.96
2024-03-12T11:59:28.988Z,27.97
2024-03-12T12:00:29.225Z,27.96
2024-03-12T12:01:29.047Z,27.94
2024-03-12T12:02:29.012Z,27.94
2024-03-12T12:03:28.990Z,27.94
2024-03-12T12:04:29.008Z,27.96
2024-03-12T12:05:29.036Z,27.96
2024-03-12T12:06:28.989Z,27.96
2024-03-12T12:07:29.252Z,27.96
2024-03-12T12:08:29.018Z,27.96
2024-03-12T12:09:29.027Z,27.94
2024-03-12T12:10:29.254Z,27.96
2024-03-12T12:11:29.065Z,27.94
2024-03-12T12:12:28.985Z,27.93
2024-03-12T12:13:29.022Z,27.91
2024-03-12T12:14:29.069Z,27.91
2024-03-12T12:15:29.013Z,27.91
2024-03-12T12:16:29.011Z,27.89
2024-03-12T12:17:29.016Z,27.91
2024-03-12T12:18:29.024Z,27.91
2024-03-12T12:20:29.041Z,27.87
2024-03-12T12:21:29.054Z,27.86
2024-03-12T12:22:29.074Z,27.89
2024-03-12T12:23:29.048Z,27.90
2024-03-12T12:24:29.008Z,27.87
2024-03-12T12:25:29.203Z,27.89
2024-03-12T12:26:29.031Z,27.87
2024-03-12T12:27:29.032Z,27.87
2024-03-12T12:28:29.043Z,27.87
2024-03-12T12:29:29.055Z,27.86
2024-03-12T12:30:29.742Z,27.86
2024-03-12T12:31:29.023Z,27.87
2024-03-12T12:32:29.130Z,27.84
2024-03-12T12:33:29.033Z,27.87
2024-03-12T12:34:29.048Z,27.86
2024-03-12T12:35:29.163Z,27.86
2024-03-12T12:36:29.025Z,27.84
2024-03-12T12:37:29.065Z,27.84
2024-03-12T12:38:29.048Z,27.86
2024-03-12T12:39:36.543Z,27.84
2024-03-12T12:40:30.111Z,27.84
2024-03-12T12:41:29.042Z,27.84
2024-03-12T12:42:29.039Z,27.83
2024-03-12T12:43:29.050Z,27.83
2024-03-12T12:44:29.058Z,27.86
2024-03-12T12:45:29.061Z,27.84
2024-03-12T12:46:29.145Z,27.84
2024-03-12T12:47:29.152Z,27.86
2024-03-12T12:48:29.085Z,27.84
2024-03-12T12:49:29.079Z,27.87
2024-03-12T12:50:29.095Z,27.89
2024-03-12T12:51:29.070Z,27.89
2024-03-12T12:52:29.112Z,27.87
2024-03-12T12:53:29.737Z,27.86
2024-03-12T12:54:29.200Z,27.87
2024-03-12T12:55:29.340Z,27.86